Naval Air Station/ Jrb, Texas
Current Conditions -  °F | °C
As of 8:52 PM on Wednesday 22 Oct 2014 (Local Time) from KNFW Reporting Station
Broken Clouds Broken Clouds  
Wind Chill: 79°   Ceiling: 25000
Heat Index: 80°   Visibility: 10mi
Dew Point: 57°   Wind: 3mph
Humidity: 47%   Direction: 110°ESE
Pressure: 30.14"   Gusts: NA
Location:  32.7772°N, 97.4184°W
Report Text: KNFW 230152Z 11003KT 10SM SCT150 BKN250 26/14 A3014 RMK AO2 SLP188 T02610139 VISNO N $
Loading
Personal Weather Stations






























Interactive Weather Map
Tropical Storm Tracking
New forecast layout! Learn more

10-Day Weather Forecast

Advertisements
Track Severe Weather on mobile